Time;durP1;ratioP1;P1;durP2;ratioP2;P2;SDS_P1;SDS_P2;PMS_P1;PMS_P2;Temp;Humidity;BMP_temperature;BMP_pressure;BME280_temperature;BME280_humidity;BME280_pressure;Samples;Min_cycle;Max_cycle;Signal;HPM_P1;HPM_P2
2022/05/15 00:00:38;;;;;;;33.10;9.18;;;;;;;8.65;100.00;102193.78;10480522;28;20037;-73
2022/05/15 00:05:39;;;;;;;36.08;7.50;;;;;;;8.61;100.00;102198.00;10497931;28;20049;-73
2022/05/15 00:10:40;;;;;;;33.20;7.72;;;;;;;8.53;100.00;102189.94;10498034;28;20040;-70
2022/05/15 00:15:40;;;;;;;33.35;8.27;;;;;;;8.46;100.00;102189.94;10503060;28;20484;-73
2022/05/15 00:20:41;;;;;;;30.95;7.40;;;;;;;8.46;100.00;102189.94;10451737;28;20110;-72
2022/05/15 00:25:41;;;;;;;27.83;8.95;;;;;;;8.42;100.00;102188.66;10465718;28;20033;-72
2022/05/15 00:30:42;;;;;;;37.88;8.43;;;;;;;8.35;100.00;102189.66;10464745;28;20044;-73
2022/05/15 00:35:42;;;;;;;29.73;8.68;;;;;;;8.34;100.00;102188.00;10477415;28;20036;-73
2022/05/15 00:40:44;;;;;;;32.47;8.15;;;;;;;8.27;100.00;102185.25;10503499;28;20111;-72
2022/05/15 00:45:44;;;;;;;26.45;10.15;;;;;;;8.16;100.00;102189.41;10504065;28;20041;-73
2022/05/15 00:50:45;;;;;;;30.63;12.02;;;;;;;8.13;100.00;102189.81;10506904;28;20086;-72
2022/05/15 00:55:48;;;;;;;41.90;15.40;;;;;;;8.03;100.00;102178.41;10520774;28;20032;-66
2022/05/15 01:00:48;;;;;;;39.58;12.63;;;;;;;7.98;100.00;102170.78;10461758;28;20049;-73
2022/05/15 01:05:51;;;;;;;40.60;11.98;;;;;;;8.02;100.00;102179.44;10443919;28;20147;-72
2022/05/15 01:10:53;;;;;;;38.28;12.73;;;;;;;7.96;100.00;102183.88;10460934;28;20056;-73
2022/05/15 01:15:53;;;;;;;30.70;9.27;;;;;;;7.92;100.00;102181.72;10463751;28;20032;-74
2022/05/15 01:20:55;;;;;;;34.58;9.82;;;;;;;7.85;100.00;102177.06;10462748;28;20457;-74
2022/05/15 01:25:58;;;;;;;31.50;8.60;;;;;;;7.80;100.00;102179.56;10460368;28;20048;-74
2022/05/15 01:30:59;;;;;;;33.35;9.90;;;;;;;7.75;100.00;102175.75;10503021;28;20112;-73
2022/05/15 01:35:59;;;;;;;24.08;8.80;;;;;;;7.67;100.00;102180.34;10503134;28;20036;-73
2022/05/15 01:40:59;;;;;;;42.33;10.38;;;;;;;7.64;100.00;102174.44;10503098;28;20500;-74
2022/05/15 01:46:00;;;;;;;26.58;8.77;;;;;;;7.61;100.00;102188.56;10503994;28;20041;-73
2022/05/15 01:51:00;;;;;;;37.95;10.55;;;;;;;7.55;100.00;102187.47;10502992;28;20047;-68
2022/05/15 01:56:03;;;;;;;28.52;9.52;;;;;;;7.51;100.00;102180.69;10501967;28;20048;-73
2022/05/15 02:01:03;;;;;;;35.95;8.40;;;;;;;7.50;100.00;102180.88;10482101;28;20104;-73
2022/05/15 02:06:04;;;;;;;29.88;8.70;;;;;;;7.46;100.00;102192.25;10500511;28;20043;-73
2022/05/15 02:11:05;;;;;;;40.70;12.00;;;;;;;7.45;100.00;102189.72;10502250;28;20044;-73
2022/05/15 02:16:05;;;;;;;35.92;10.15;;;;;;;7.40;100.00;102187.59;10503385;28;20055;-73
2022/05/15 02:21:06;;;;;;;37.13;10.57;;;;;;;7.44;100.00;102188.00;10484565;28;20056;-73
2022/05/15 02:26:06;;;;;;;25.80;9.43;;;;;;;7.32;100.00;102182.25;10499820;28;20484;-74
2022/05/15 02:31:07;;;;;;;27.85;8.43;;;;;;;7.32;100.00;102193.22;10498475;28;20028;-73
2022/05/15 02:36:07;;;;;;;37.53;10.85;;;;;;;7.25;100.00;102192.31;10498226;28;20037;-73
2022/05/15 02:41:08;;;;;;;30.85;9.50;;;;;;;7.23;100.00;102191.66;10500944;28;20033;-74
2022/05/15 02:46:08;;;;;;;27.20;8.25;;;;;;;7.17;100.00;102198.81;10502400;28;20169;-72
2022/05/15 02:51:09;;;;;;;34.03;10.27;;;;;;;7.14;100.00;102203.84;10499860;28;20033;-67
2022/05/15 02:56:12;;;;;;;32.08;9.02;;;;;;;7.03;100.00;102188.78;10499505;28;20166;-74
2022/05/15 03:01:13;;;;;;;30.45;9.32;;;;;;;7.07;100.00;102201.03;10476427;28;20053;-74
2022/05/15 03:06:14;;;;;;;27.17;9.70;;;;;;;7.00;100.00;102202.88;10457372;28;20040;-73
2022/05/15 03:11:14;;;;;;;39.58;10.13;;;;;;;6.95;100.00;102206.22;10458363;28;20041;-73
2022/05/15 03:16:16;;;;;;;30.00;9.57;;;;;;;6.84;100.00;102193.91;10459830;28;20025;-73
2022/05/15 03:21:29;;;;;;;32.40;9.23;;;;;;;6.92;100.00;102206.59;10457080;28;20025;-72
2022/05/15 03:26:31;;;;;;;25.75;10.65;;;;;;;6.90;100.00;102197.72;10458276;28;20071;-74
2022/05/15 03:31:35;;;;;;;40.22;12.35;;;;;;;6.91;100.00;102202.16;10456680;28;20040;-73
2022/05/15 03:36:36;;;;;;;36.40;9.93;;;;;;;6.86;100.00;102204.63;10475497;28;20051;-73
2022/05/15 03:41:37;;;;;;;32.45;10.60;;;;;;;6.85;100.00;102195.59;10480780;28;20040;-73
2022/05/15 03:46:39;;;;;;;31.38;9.95;;;;;;;6.87;100.00;102195.41;10499934;28;20043;-73
2022/05/15 03:51:39;;;;;;;39.88;11.05;;;;;;;6.89;100.00;102200.69;10479925;28;20044;-74
2022/05/15 03:56:52;;;;;;;32.17;13.00;;;;;;;6.87;100.00;102189.91;10513356;28;20045;-74
2022/05/15 04:01:53;;;;;;;31.23;11.38;;;;;;;6.93;100.00;102200.09;10461611;28;20048;-73
2022/05/15 04:06:53;;;;;;;35.92;12.18;;;;;;;6.86;100.00;102186.34;10456482;28;20041;-74
2022/05/15 04:11:54;;;;;;;37.70;10.75;;;;;;;6.99;100.00;102204.78;10456602;28;20506;-73
2022/05/15 04:16:54;;;;;;;35.55;10.60;;;;;;;7.06;100.00;102211.13;10444563;28;20033;-74
2022/05/15 04:21:58;;;;;;;38.67;12.27;;;;;;;7.15;100.00;102208.25;10497594;28;20044;-74
2022/05/15 04:26:59;;;;;;;37.83;11.73;;;;;;;7.20;100.00;102219.47;10495781;28;20626;-74
2022/05/15 04:31:59;;;;;;;36.50;12.32;;;;;;;7.22;100.00;102193.56;10472108;28;20101;-74
2022/05/15 04:37:00;;;;;;;46.63;13.35;;;;;;;7.42;100.00;102212.88;10455531;28;20048;-73
2022/05/15 04:42:01;;;;;;;39.85;12.90;;;;;;;7.52;100.00;102208.94;10457358;28;20029;-73
2022/05/15 04:47:02;;;;;;;41.53;13.45;;;;;;;7.54;100.00;102204.94;10456464;28;20033;-74
2022/05/15 04:52:02;;;;;;;40.35;13.85;;;;;;;7.74;100.00;102217.91;10456220;28;20037;-74
2022/05/15 04:57:03;;;;;;;45.70;15.82;;;;;;;7.88;100.00;102209.56;10455667;28;20041;-74
2022/05/15 05:02:04;;;;;;;38.50;13.65;;;;;;;8.07;100.00;102215.34;10488577;28;20496;-74
2022/05/15 05:07:04;;;;;;;44.10;13.60;;;;;;;8.17;100.00;102196.59;10460207;28;20041;-73
2022/05/15 05:12:06;;;;;;;40.65;14.32;;;;;;;8.39;100.00;102215.63;10464234;28;20037;-71
2022/05/15 05:17:06;;;;;;;45.55;14.07;;;;;;;8.53;100.00;102200.94;10463290;28;20049;-71
2022/05/15 05:22:06;;;;;;;36.10;13.82;;;;;;;8.77;100.00;102212.38;10463132;28;20037;-75
2022/05/15 05:27:07;;;;;;;43.97;13.35;;;;;;;8.96;100.00;102208.81;10462791;28;20420;-75
2022/05/15 05:32:08;;;;;;;38.55;11.45;;;;;;;9.06;100.00;102195.50;10472201;28;20034;-75
2022/05/15 05:37:08;;;;;;;33.20;12.65;;;;;;;9.31;100.00;102208.56;10460779;28;20045;-75
2022/05/15 05:42:09;;;;;;;31.38;12.68;;;;;;;9.57;100.00;102220.56;10462848;28;20045;-75
2022/05/15 05:47:09;;;;;;;33.33;11.00;;;;;;;9.40;100.00;102132.22;10461462;28;20092;-75
2022/05/15 05:52:10;;;;;;;23.17;8.80;;;;;;;10.28;100.00;102220.53;10461338;28;20029;-74
2022/05/15 05:57:10;;;;;;;28.20;8.35;;;;;;;10.68;100.00;102220.31;10469349;28;20090;-74
2022/05/15 06:02:11;;;;;;;32.50;10.07;;;;;;;11.06;100.00;102213.91;10501789;28;20047;-74
2022/05/15 06:07:13;;;;;;;25.00;8.02;;;;;;;11.50;100.00;102225.81;10503143;28;20044;-73
2022/05/15 06:12:16;;;;;;;23.33;7.63;;;;;;;11.83;100.00;102221.84;10500912;28;20044;-74
2022/05/15 06:17:24;;;;;;;31.35;7.13;;;;;;;12.15;100.00;102221.69;10498620;28;20112;-74
2022/05/15 06:22:25;;;;;;;23.55;6.80;;;;;;;12.46;100.00;102214.28;10498909;28;20032;-73
2022/05/15 06:27:25;;;;;;;24.92;6.25;;;;;;;12.77;100.00;102220.63;10498422;28;20037;-73
2022/05/15 06:32:26;;;;;;;20.50;5.88;;;;;;;13.04;100.00;102227.44;10499233;28;20040;-73
2022/05/15 06:37:26;;;;;;;25.05;6.13;;;;;;;13.33;100.00;102230.34;10497950;28;20048;-73
2022/05/15 06:42:28;;;;;;;27.83;6.53;;;;;;;13.55;100.00;102230.63;10498737;28;20051;-74
2022/05/15 06:47:29;;;;;;;20.38;5.90;;;;;;;13.82;100.00;102239.25;10497396;28;20068;-74
2022/05/15 06:52:29;;;;;;;17.05;5.55;;;;;;;14.09;100.00;102227.63;10497216;28;20037;-75
2022/05/15 06:57:30;;;;;;;27.80;8.25;;;;;;;14.25;100.00;102215.78;10498638;28;20068;-75
2022/05/15 07:02:30;;;;;;;20.67;5.97;;;;;;;14.58;100.00;102238.34;10497546;28;20041;-74
2022/05/15 07:07:31;;;;;;;21.70;6.60;;;;;;;14.84;100.00;102223.00;10497917;28;20037;-74
2022/05/15 07:12:31;;;;;;;28.20;6.13;;;;;;;15.14;100.00;102229.09;10500108;28;20043;-73
2022/05/15 07:17:32;;;;;;;28.33;5.57;;;;;;;15.38;100.00;102231.69;10498396;28;20051;-64
2022/05/15 07:22:33;;;;;;;23.92;6.43;;;;;;;15.54;100.00;102227.19;10499023;28;20033;-74
2022/05/15 07:27:33;;;;;;;21.90;5.38;;;;;;;15.65;100.00;102229.03;10495340;28;20053;-72
2022/05/15 07:32:34;;;;;;;20.80;6.13;;;;;;;15.81;100.00;102227.34;10497166;28;20032;-74
2022/05/15 07:37:34;;;;;;;18.20;5.53;;;;;;;16.03;100.00;102223.75;10499640;28;20051;-73
2022/05/15 07:42:36;;;;;;;14.10;4.82;;;;;;;16.24;100.00;102219.28;10496833;28;20041;-74
2022/05/15 07:47:37;;;;;;;14.07;3.78;;;;;;;16.47;100.00;102212.59;10497230;28;20032;-74
2022/05/15 07:52:37;;;;;;;17.02;4.22;;;;;;;16.56;100.00;102205.47;10496632;28;20100;-73
2022/05/15 07:57:38;;;;;;;21.15;5.13;;;;;;;16.73;100.00;102208.97;10492017;28;20037;-74
2022/05/15 08:02:38;;;;;;;12.95;3.40;;;;;;;16.89;100.00;102190.53;10491355;28;20044;-72
2022/05/15 08:12:59;;;;;;;15.88;3.78;;;;;;;17.14;100.00;102158.44;10496602;28;20040;-74
2022/05/15 08:23:33;;;;;;;17.38;4.65;;;;;;;17.84;99.85;102187.00;10497226;28;20060;-74
2022/05/15 08:28:34;;;;;;;11.00;4.18;;;;;;;17.95;93.41;102171.16;10498456;28;20047;-75
2022/05/15 08:33:35;;;;;;;9.90;2.83;;;;;;;17.78;88.71;102112.84;10480666;28;20048;-75
2022/05/15 08:38:36;;;;;;;12.23;2.70;;;;;;;18.16;87.97;102169.28;10505123;28;20036;-75
2022/05/15 08:44:09;;;;;;;11.00;2.40;;;;;;;18.35;85.10;102170.47;10503294;28;20028;-75
2022/05/15 08:49:29;;;;;;;11.00;3.35;;;;;;;18.61;86.48;102161.31;10503178;28;20105;-75
2022/05/15 08:54:30;;;;;;;17.27;3.58;;;;;;;18.65;86.17;102163.25;10504928;28;20048;-74
2022/05/15 08:59:32;;;;;;;13.23;4.25;;;;;;;18.81;84.38;102152.97;10482219;28;20063;-73
2022/05/15 09:04:32;;;;;;;18.58;4.72;;;;;;;19.07;84.07;102158.53;10494624;28;20056;-74
2022/05/15 09:09:59;;;;;;;12.40;3.85;;;;;;;19.23;81.22;102154.59;10502266;28;20108;-75
2022/05/15 09:15:13;;;;;;;14.15;3.63;;;;;;;19.53;78.55;102161.22;10502207;28;20040;-72
2022/05/15 09:20:27;;;;;;;14.48;3.47;;;;;;;19.81;79.66;102156.97;10503575;28;20047;-72
2022/05/15 09:25:32;;;;;;;12.77;4.22;;;;;;;20.03;75.86;102164.13;10486858;28;20032;-72
2022/05/15 09:30:41;;;;;;;12.68;3.20;;;;;;;20.06;75.35;102152.41;10500270;28;20056;-76
2022/05/15 09:35:41;;;;;;;12.73;3.33;;;;;;;20.24;75.64;102157.31;10483301;28;20052;-74
2022/05/15 09:46:13;;;;;;;11.18;2.40;;;;;;;20.42;70.86;102135.38;10461294;28;20044;-71
2022/05/15 09:51:13;;;;;;;14.40;3.55;;;;;;;20.38;71.60;102125.91;10462227;28;20037;-75
2022/05/15 09:56:20;;;;;;;13.43;3.60;;;;;;;20.50;67.89;102109.59;10459409;28;20056;-75
2022/05/15 10:01:33;;;;;;;;;;;;;;;20.52;69.33;102126.91;10476188;28;20047;-75
2022/05/15 10:06:38;;;;;;;13.23;3.25;;;;;;;20.62;69.66;102121.28;10501704;28;19916;-74
2022/05/15 10:11:44;;;;;;;14.77;3.05;;;;;;;20.91;68.04;102124.09;10502053;28;20044;-74
2022/05/15 10:16:51;;;;;;;14.43;3.38;;;;;;;21.08;66.05;102106.84;10484561;28;20033;-75
2022/05/15 10:21:58;;;;;;;13.43;3.03;;;;;;;21.45;67.00;102116.56;10500350;28;20047;-75
2022/05/15 10:27:18;;;;;;;;;;;;;;;21.80;64.41;102094.84;10500566;28;20492;-76
2022/05/15 10:32:39;;;;;;;10.30;2.80;;;;;;;22.01;62.77;102091.75;10489598;28;20307;-74
2022/05/15 10:38:01;;;;;;;10.63;2.95;;;;;;;21.94;62.73;102090.16;10500788;28;20036;-73
2022/05/15 10:43:25;;;;;;;10.65;3.20;;;;;;;22.12;62.82;102096.91;10501458;28;20040;-74
2022/05/15 10:48:40;;;;;;;12.02;3.70;;;;;;;22.49;59.04;102070.00;10498720;28;20024;-74
2022/05/15 10:59:36;;;;;;;12.65;3.35;;;;;;;22.33;60.06;102044.16;10500211;28;20051;-81
2022/05/15 11:04:46;;;;;;;11.48;3.33;;;;;;;22.58;58.83;102044.88;10496703;28;20036;-83
2022/05/15 11:10:06;;;;;;;10.65;3.65;;;;;;;22.81;57.95;102043.03;10496130;28;20033;-78
2022/05/15 11:15:17;;;;;;;15.00;3.97;;;;;;;22.84;55.51;102027.53;10495382;28;20495;-77
2022/05/15 11:20:21;;;;;;;14.32;3.40;;;;;;;22.76;58.82;102038.34;10495635;28;20067;-75
2022/05/15 11:25:31;;;;;;;9.20;3.00;;;;;;;22.72;55.58;102020.47;10477326;28;20037;-82
2022/05/15 11:30:34;;;;;;;14.45;2.85;;;;;;;22.86;56.81;102008.41;10471382;28;20100;-76
2022/05/15 11:35:37;;;;;;;9.13;2.97;;;;;;;22.85;53.98;101990.75;10480456;28;20048;-71
2022/05/15 11:40:43;;;;;;;12.48;3.33;;;;;;;23.17;55.68;102003.88;10479930;28;20067;-74
2022/05/15 11:45:53;;;;;;;8.82;2.63;;;;;;;23.61;55.89;102006.34;10472620;28;20041;-73
2022/05/15 11:51:01;;;;;;;7.90;2.13;;;;;;;24.40;51.82;101979.69;10492515;28;20084;-77
2022/05/15 11:56:40;;;;;;;11.07;3.03;;;;;;;24.16;50.11;101975.22;10495789;28;20530;-81
2022/05/15 12:01:43;;;;;;;8.30;2.50;;;;;;;24.64;48.89;101983.00;10466615;28;20041;-76
2022/05/15 12:06:55;;;;;;;9.45;2.85;;;;;;;24.92;48.68;101957.44;10454074;28;20041;-76
2022/05/15 12:11:57;;;;;;;9.73;2.58;;;;;;;25.62;48.56;101949.16;10464358;28;20040;-75
2022/05/15 12:17:24;;;;;;;8.93;2.90;;;;;;;26.05;48.20;101956.81;10462471;28;20049;-73
2022/05/15 12:22:25;;;;;;;12.13;3.10;;;;;;;26.32;45.84;101924.53;10463792;28;20041;-75
2022/05/15 12:27:26;;;;;;;13.35;3.35;;;;;;;25.72;47.62;101937.53;10463736;28;20037;-77
2022/05/15 12:32:30;;;;;;;9.82;2.92;;;;;;;25.13;47.47;101933.13;10460518;28;20055;-78
2022/05/15 12:37:33;;;;;;;7.40;2.33;;;;;;;25.76;44.95;101919.63;10504471;28;20496;-72
2022/05/15 12:42:38;;;;;;;6.20;1.80;;;;;;;26.04;43.57;101927.72;10504249;28;20036;-75
2022/05/15 12:47:39;;;;;;;6.28;2.50;;;;;;;26.16;43.13;101918.59;10504906;28;20036;-74
2022/05/15 12:52:39;;;;;;;6.43;2.30;;;;;;;26.56;43.45;101904.16;10505071;28;20033;-74
2022/05/15 12:57:44;;;;;;;7.70;2.10;;;;;;;27.68;41.95;101892.50;10468916;28;20045;-74
2022/05/15 13:02:45;;;;;;;8.00;2.47;;;;;;;27.16;41.20;101900.22;10471312;28;20040;-75
2022/05/15 13:07:46;;;;;;;8.23;2.08;;;;;;;27.64;41.52;101888.72;10487389;28;20338;-75
2022/05/15 13:12:57;;;;;;;7.35;2.08;;;;;;;27.50;40.26;101863.56;10504316;28;20033;-75
2022/05/15 13:18:01;;;;;;;8.30;2.53;;;;;;;28.17;39.10;101870.03;10487119;28;20024;-75
2022/05/15 13:23:02;;;;;;;6.57;1.92;;;;;;;27.62;38.92;101871.25;10501689;28;20029;-74
2022/05/15 13:28:03;;;;;;;7.72;2.60;;;;;;;27.71;39.34;101875.66;10500670;28;20067;-74
2022/05/15 13:33:06;;;;;;;10.23;2.28;;;;;;;27.73;37.71;101855.53;10477757;28;20097;-75
2022/05/15 13:38:33;;;;;;;9.80;1.92;;;;;;;27.62;38.81;101855.13;10460190;28;20520;-74
2022/05/15 13:43:35;;;;;;;5.88;1.83;;;;;;;27.77;37.93;101842.31;10445211;28;20033;-75
2022/05/15 13:49:01;;;;;;;7.60;2.00;;;;;;;27.90;38.92;101841.22;10459839;28;20112;-75
2022/05/15 13:54:12;;;;;;;7.40;2.47;;;;;;;28.51;38.84;101839.69;10459888;28;20040;-74
2022/05/15 13:59:34;;;;;;;7.88;2.22;;;;;;;28.29;36.49;101819.09;10460622;28;20063;-73
2022/05/15 14:04:34;;;;;;;7.57;1.98;;;;;;;27.74;38.11;101812.75;10499080;28;20186;-74
2022/05/15 14:09:43;;;;;;;7.85;2.33;;;;;;;27.89;37.94;101822.59;10483469;28;20032;-71
2022/05/15 14:15:05;;;;;;;8.10;2.60;;;;;;;28.23;38.08;101817.69;10502666;28;20039;-73
2022/05/15 14:20:07;;;;;;;7.30;1.80;;;;;;;28.27;38.54;101815.78;10503122;28;20430;-70
2022/05/15 14:25:09;;;;;;;6.15;1.70;;;;;;;27.69;37.75;101804.47;10500670;28;20036;-68
2022/05/15 14:30:10;;;;;;;8.02;2.40;;;;;;;27.96;38.59;101808.69;10482437;28;20112;-73
2022/05/15 14:35:11;;;;;;;6.85;2.00;;;;;;;27.88;37.67;101792.63;10487883;28;20420;-72
2022/05/15 14:40:11;;;;;;;5.20;1.70;;;;;;;28.10;35.96;101773.56;10459483;28;20037;-71
2022/05/15 14:45:17;;;;;;;11.52;2.83;;;;;;;28.29;36.92;101790.78;10457507;28;20037;-79
2022/05/15 14:50:17;;;;;;;7.20;1.80;;;;;;;28.36;36.95;101782.53;10460987;28;20100;-72
2022/05/15 15:00:38;;;;;;;8.05;1.90;;;;;;;27.98;37.72;101772.34;10463673;28;20530;-74
2022/05/15 15:05:44;;;;;;;9.65;2.10;;;;;;;28.50;36.09;101758.72;10499800;28;20032;-71
2022/05/15 15:10:45;;;;;;;5.80;1.63;;;;;;;28.56;36.37;101769.44;10497486;28;20036;-76
2022/05/15 15:15:45;;;;;;;6.32;2.28;;;;;;;29.14;35.26;101751.38;10497765;28;20036;-75
2022/05/15 15:20:46;;;;;;;8.05;1.98;;;;;;;29.04;35.13;101744.16;10500281;28;20044;-76
2022/05/15 15:25:48;;;;;;;11.95;2.85;;;;;;;28.89;34.71;101734.41;10499595;28;20028;-75
2022/05/15 15:30:48;;;;;;;5.00;1.58;;;;;;;29.16;36.09;101729.16;10498166;28;20037;-76
2022/05/15 15:35:49;;;;;;;5.22;1.63;;;;;;;30.06;34.86;101732.41;10497271;28;20052;-76
2022/05/15 15:40:53;;;;;;;11.82;2.20;;;;;;;30.38;33.64;101721.81;10497395;28;20579;-77
2022/05/15 15:45:54;;;;;;;8.17;2.30;;;;;;;30.84;33.92;101721.25;10482607;28;20040;-78
2022/05/15 15:50:55;;;;;;;7.78;2.25;;;;;;;30.96;33.30;101711.75;10499662;28;20092;-75
2022/05/15 15:55:56;;;;;;;7.00;2.33;;;;;;;30.89;33.14;101712.44;10479680;28;20037;-74
2022/05/15 16:00:56;;;;;;;5.00;1.83;;;;;;;30.51;32.82;101698.97;10462837;28;20092;-78
2022/05/15 16:05:57;;;;;;;4.60;1.70;;;;;;;30.84;33.17;101698.50;10453867;28;20037;-74
2022/05/15 16:10:58;;;;;;;5.00;2.20;;;;;;;31.25;32.28;101692.41;10438030;28;20033;-76
2022/05/15 16:15:58;;;;;;;8.82;2.00;;;;;;;30.98;32.71;101693.09;10457869;28;20036;-72
2022/05/15 16:21:12;;;;;;;5.70;1.90;;;;;;;30.47;32.87;101696.06;10494927;28;20147;-76
2022/05/15 16:26:12;;;;;;;8.32;2.13;;;;;;;30.06;32.96;101694.66;10496545;28;20039;-76
2022/05/15 16:31:13;;;;;;;8.38;1.73;;;;;;;29.48;33.83;101686.69;10450709;28;20124;-74
2022/05/15 16:36:13;;;;;;;5.95;1.75;;;;;;;28.24;34.26;101685.41;10490148;28;20634;-74
2022/05/15 16:41:14;;;;;;;7.68;2.65;;;;;;;26.89;36.39;101692.47;10496098;28;20073;-77
2022/05/15 16:46:14;;;;;;;7.68;2.20;;;;;;;26.32;38.53;101696.69;10498975;28;20032;-74
2022/05/15 16:51:15;;;;;;;5.18;2.10;;;;;;;26.20;38.14;101693.78;10496759;28;20039;-74
2022/05/15 16:56:15;;;;;;;8.07;2.10;;;;;;;26.62;38.79;101693.84;10498266;28;20033;-73
2022/05/15 17:01:16;;;;;;;7.07;1.90;;;;;;;26.76;38.21;101697.22;10477603;28;20033;-72
2022/05/15 17:06:16;;;;;;;6.47;1.70;;;;;;;25.84;39.80;101702.72;10458464;28;20044;-72
2022/05/15 17:11:17;;;;;;;9.82;2.30;;;;;;;25.02;42.24;101714.03;10475672;28;20037;-65
2022/05/15 17:16:17;;;;;;;7.68;2.55;;;;;;;24.16;44.58;101713.56;10462880;28;21533;-73
2022/05/15 17:21:18;;;;;;;5.68;1.83;;;;;;;23.42;48.37;101723.47;10491235;28;20036;-73
2022/05/15 17:26:18;;;;;;;7.90;3.35;;;;;;;22.72;51.24;101736.94;10501978;28;20043;-72
2022/05/15 17:36:38;;;;;;;6.68;2.10;;;;;;;21.63;55.48;101741.44;10502236;28;20032;-73
2022/05/15 17:41:39;;;;;;;8.13;2.10;;;;;;;21.16;57.76;101738.56;10502854;28;20048;-72
2022/05/15 17:46:40;;;;;;;8.05;2.38;;;;;;;20.94;59.41;101739.19;10500316;28;20036;-73
2022/05/15 17:51:40;;;;;;;8.10;2.20;;;;;;;20.67;65.60;101757.50;10501305;28;20479;-75
2022/05/15 17:56:41;;;;;;;9.55;2.97;;;;;;;20.22;71.58;101748.53;10500607;28;20029;-73
2022/05/15 18:01:41;;;;;;;14.30;3.03;;;;;;;19.86;76.01;101746.16;10480849;28;20041;-72
2022/05/15 18:06:42;;;;;;;11.88;3.13;;;;;;;19.47;78.97;101755.47;10469484;28;20033;-71
2022/05/15 18:11:43;;;;;;;10.48;3.00;;;;;;;19.28;81.72;101762.88;10472443;28;20040;-74
2022/05/15 18:16:43;;;;;;;9.75;3.33;;;;;;;19.01;84.04;101753.03;10468880;28;20033;-74
2022/05/15 18:21:44;;;;;;;10.38;3.38;;;;;;;18.66;85.66;101743.72;10463903;28;20106;-74
2022/05/15 18:26:44;;;;;;;11.40;2.55;;;;;;;18.43;88.38;101736.06;10456198;28;20071;-66
2022/05/15 18:31:45;;;;;;;9.90;3.22;;;;;;;18.31;90.97;101756.75;10459990;28;20048;-75
2022/05/15 18:36:46;;;;;;;8.43;2.80;;;;;;;18.06;91.71;101760.44;10460645;28;20536;-76
2022/05/15 18:41:53;;;;;;;10.70;2.90;;;;;;;17.80;92.68;101767.16;10461473;28;20345;-75
2022/05/15 18:46:56;;;;;;;11.27;3.15;;;;;;;17.52;94.78;101767.47;10459365;28;20112;-74
2022/05/15 18:57:16;;;;;;;11.63;2.80;;;;;;;16.99;97.69;101754.94;10456783;28;20041;-72
2022/05/15 19:02:18;;;;;;;10.82;3.25;;;;;;;16.81;100.00;101756.31;10456112;28;20041;-72
2022/05/15 19:07:19;;;;;;;11.90;3.15;;;;;;;16.55;100.00;101747.88;10441785;28;20040;-72
2022/05/15 19:12:19;;;;;;;8.93;3.10;;;;;;;16.31;100.00;101737.25;10456987;28;20029;-71
2022/05/15 19:17:20;;;;;;;10.10;2.55;;;;;;;16.19;100.00;101756.06;10457802;28;20052;-74
2022/05/15 19:22:20;;;;;;;10.88;2.63;;;;;;;16.03;100.00;101757.94;10458016;28;20041;-71
2022/05/15 19:27:21;;;;;;;11.75;3.17;;;;;;;15.86;100.00;101760.91;10455604;28;20059;-72
2022/05/15 19:32:21;;;;;;;11.98;3.40;;;;;;;15.67;100.00;101766.03;10457145;28;20041;-73
2022/05/15 19:37:23;;;;;;;10.20;3.05;;;;;;;15.51;100.00;101769.78;10459174;28;20037;-74
2022/05/15 19:42:23;;;;;;;10.25;2.88;;;;;;;15.29;100.00;101764.31;10458487;28;20091;-72
2022/05/15 19:47:27;;;;;;;10.75;3.25;;;;;;;15.17;100.00;101783.06;10454969;28;20100;-72
2022/05/15 19:52:27;;;;;;;12.73;2.90;;;;;;;15.00;100.00;101789.56;10456455;28;20044;-71
2022/05/15 19:57:28;;;;;;;11.65;3.72;;;;;;;14.77;100.00;101774.09;10457239;28;20096;-72
2022/05/15 20:02:28;;;;;;;6.03;3.03;;;;;;;14.71;100.00;101789.81;10456749;28;20316;-73
2022/05/15 20:12:48;;;;;;;11.95;3.58;;;;;;;14.44;100.00;101798.06;10456723;28;20080;-71
2022/05/15 20:17:48;;;;;;;15.55;3.88;;;;;;;14.33;100.00;101802.63;10455853;28;20048;-70
2022/05/15 20:22:49;;;;;;;14.40;3.63;;;;;;;14.19;100.00;101795.78;10455750;28;20499;-75
2022/05/15 20:27:49;;;;;;;15.55;4.15;;;;;;;14.05;100.00;101789.78;10456058;28;20524;-72
2022/05/15 20:32:50;;;;;;;9.35;3.55;;;;;;;13.92;100.00;101795.69;10462709;28;20473;-71
2022/05/15 20:37:51;;;;;;;8.55;3.58;;;;;;;13.83;100.00;101795.28;10464794;28;20505;-71
2022/05/15 20:42:52;;;;;;;11.48;3.30;;;;;;;13.64;100.00;101775.38;10464345;28;20040;-70
2022/05/15 20:47:52;;;;;;;15.38;5.32;;;;;;;13.61;100.00;101788.84;10463192;28;20037;-71
2022/05/15 20:52:53;;;;;;;11.05;3.88;;;;;;;13.48;100.00;101790.88;10463217;28;20040;-72
2022/05/15 20:57:53;;;;;;;12.93;3.80;;;;;;;13.41;100.00;101792.13;10460641;28;20708;-71
2022/05/15 21:02:54;;;;;;;15.13;3.95;;;;;;;13.32;100.00;101780.63;10462753;28;20455;-67
2022/05/15 21:07:54;;;;;;;10.95;4.13;;;;;;;13.27;100.00;101783.28;10461116;28;20056;-72
2022/05/15 21:12:56;;;;;;;13.77;4.78;;;;;;;13.14;100.00;101767.84;10461375;28;20881;-72
2022/05/15 21:17:57;;;;;;;12.43;5.72;;;;;;;13.13;100.00;101783.59;10460383;28;20049;-72
2022/05/15 21:22:58;;;;;;;11.57;4.70;;;;;;;13.06;100.00;101777.41;10460273;28;20044;-72
2022/05/15 21:28:01;;;;;;;11.52;4.72;;;;;;;13.02;100.00;101776.22;10471197;28;20104;-71
2022/05/15 21:33:02;;;;;;;15.20;4.50;;;;;;;12.93;100.00;101788.75;10461240;28;20391;-71
2022/05/15 21:43:33;;;;;;;11.32;5.13;;;;;;;12.78;100.00;101785.72;10460064;28;20049;-71
2022/05/15 21:48:33;;;;;;;14.68;5.35;;;;;;;12.63;100.00;101767.75;10461888;28;20064;-72
2022/05/15 21:53:34;;;;;;;19.08;5.43;;;;;;;12.58;100.00;101778.69;10459745;28;20350;-71
2022/05/15 21:58:35;;;;;;;16.35;5.55;;;;;;;12.49;100.00;101766.38;10462320;28;20040;-72
2022/05/15 22:03:35;;;;;;;11.52;5.07;;;;;;;12.47;100.00;101769.38;10462033;28;20037;-74
2022/05/15 22:08:36;;;;;;;12.13;5.65;;;;;;;12.31;100.00;101745.28;10459182;28;20033;-70
2022/05/15 22:13:37;;;;;;;11.43;5.30;;;;;;;12.40;100.00;101759.53;10458771;28;20096;-71
2022/05/15 22:18:37;;;;;;;13.68;5.10;;;;;;;12.37;100.00;101765.56;10458486;28;20069;-71
2022/05/15 22:23:38;;;;;;;14.15;5.22;;;;;;;12.29;100.00;101762.09;10460461;28;20228;-71
2022/05/15 22:28:38;;;;;;;16.70;5.72;;;;;;;12.21;100.00;101756.94;10461409;28;20044;-70
2022/05/15 22:33:39;;;;;;;11.32;5.32;;;;;;;12.19;100.00;101767.38;10460033;28;20063;-71
2022/05/15 22:38:40;;;;;;;13.32;5.55;;;;;;;12.13;100.00;101770.28;10462241;28;20045;-70
2022/05/15 22:43:41;;;;;;;15.60;6.82;;;;;;;12.02;100.00;101763.72;10457363;28;20048;-65
2022/05/15 22:48:42;;;;;;;9.63;5.30;;;;;;;11.90;100.00;101763.72;10459567;28;20048;-64
2022/05/15 22:53:43;;;;;;;11.02;5.30;;;;;;;11.79;100.00;101757.09;10459249;28;20216;-71
2022/05/15 22:58:43;;;;;;;15.60;6.10;;;;;;;11.68;100.00;101760.72;10460412;28;20045;-70
2022/05/15 23:03:44;;;;;;;14.95;6.93;;;;;;;11.58;100.00;101752.22;10458771;28;20040;-71
2022/05/15 23:08:44;;;;;;;12.45;5.75;;;;;;;11.59;100.00;101745.59;10456176;28;20139;-70
2022/05/15 23:13:44;;;;;;;18.20;6.45;;;;;;;11.54;100.00;101742.72;10473293;28;20033;-71
2022/05/15 23:18:48;;;;;;;13.30;6.85;;;;;;;11.56;100.00;101737.81;10497649;28;20037;-71
2022/05/15 23:23:48;;;;;;;11.45;5.88;;;;;;;11.52;100.00;101724.50;10499654;28;20029;-71
2022/05/15 23:28:49;;;;;;;12.43;6.53;;;;;;;11.61;100.00;101721.38;10499274;28;20041;-71
2022/05/15 23:33:49;;;;;;;9.45;6.07;;;;;;;11.61;100.00;101711.16;10499130;28;20039;-72
2022/05/15 23:38:50;;;;;;;11.13;5.68;;;;;;;11.63;100.00;101708.19;10497745;28;20082;-72
2022/05/15 23:43:50;;;;;;;7.90;5.32;;;;;;;11.62;100.00;101707.34;10498844;28;20667;-71